Time;durP1;ratioP1;P1;durP2;ratioP2;P2;SDS_P1;SDS_P2;PMS_P1;PMS_P2;Temp;Humidity;BMP_temperature;BMP_pressure;BME280_temperature;BME280_humidity;BME280_pressure;Samples;Min_cycle;Max_cycle;Signal;HPM_P1;HPM_P2
2023/03/25 00:01:24;;;;;;;23.47;12.17;;;10.90;99.10;;;;;;4160986;28;20037;-64
2023/03/25 00:03:32;;;;;;;22.83;12.13;;;11.00;99.40;;;;;;4161992;28;20080;-64
2023/03/25 00:05:33;;;;;;;26.17;11.70;;;11.00;99.20;;;;;;4161140;28;20041;-65
2023/03/25 00:07:35;;;;;;;23.77;12.47;;;11.00;99.10;;;;;;4162050;28;20087;-63
2023/03/25 00:09:37;;;;;;;19.20;11.73;;;11.00;99.20;;;;;;4161988;28;20358;-64
2023/03/25 00:11:38;;;;;;;23.03;12.30;;;11.00;99.30;;;;;;4161308;28;20440;-63
2023/03/25 00:13:39;;;;;;;25.17;13.00;;;11.00;99.30;;;;;;4162460;28;20092;-64
2023/03/25 00:15:41;;;;;;;23.90;11.93;;;10.90;99.40;;;;;;4158075;28;20086;-64
2023/03/25 00:17:43;;;;;;;22.33;12.50;;;11.00;99.40;;;;;;4156850;28;20037;-63
2023/03/25 00:19:44;;;;;;;18.43;11.80;;;11.00;99.40;;;;;;4159205;28;20045;-64
2023/03/25 00:21:49;;;;;;;19.07;11.23;;;10.90;99.50;;;;;;4162085;28;20547;-65
2023/03/25 00:23:50;;;;;;;18.97;11.47;;;10.90;99.50;;;;;;4161127;28;20033;-64
2023/03/25 00:25:52;;;;;;;20.37;11.67;;;10.90;99.50;;;;;;4162506;28;20045;-63
2023/03/25 00:27:53;;;;;;;23.57;12.20;;;10.90;99.60;;;;;;4161203;28;20436;-66
2023/03/25 00:29:54;;;;;;;20.70;11.53;;;11.00;99.70;;;;;;4162232;28;20071;-68
2023/03/25 00:31:55;;;;;;;23.67;11.73;;;10.90;99.90;;;;;;4159183;28;20057;-63
2023/03/25 00:33:56;;;;;;;21.90;11.13;;;10.90;99.90;;;;;;4148098;28;20108;-63
2023/03/25 00:35:58;;;;;;;21.73;11.67;;;10.90;99.90;;;;;;4144652;28;20455;-63
2023/03/25 00:38:00;;;;;;;23.80;12.60;;;10.90;99.90;;;;;;4145388;28;20025;-64
2023/03/25 00:40:02;;;;;;;25.60;13.73;;;10.80;99.90;;;;;;4145083;28;20331;-64
2023/03/25 00:42:04;;;;;;;19.77;12.23;;;10.80;99.90;;;;;;4157101;28;20084;-66
2023/03/25 00:44:05;;;;;;;25.50;13.17;;;10.70;99.90;;;;;;4161954;28;20079;-64
2023/03/25 00:46:06;;;;;;;24.00;13.00;;;10.70;99.90;;;;;;4161172;28;20042;-69
2023/03/25 00:48:07;;;;;;;22.07;12.77;;;10.60;99.90;;;;;;4155435;28;20556;-64
2023/03/25 00:50:10;;;;;;;22.50;11.30;;;10.60;99.90;;;;;;4144434;28;20088;-64
2023/03/25 00:52:12;;;;;;;22.33;12.20;;;10.60;99.90;;;;;;4144014;28;20045;-69
2023/03/25 00:54:15;;;;;;;22.53;11.43;;;10.60;99.90;;;;;;4144543;28;20095;-64
2023/03/25 00:56:16;;;;;;;18.87;11.27;;;10.60;99.90;;;;;;4145969;28;20429;-63
2023/03/25 00:58:18;;;;;;;20.87;12.20;;;10.60;99.90;;;;;;4144373;28;20467;-67
2023/03/25 01:00:19;;;;;;;23.50;12.17;;;10.60;99.90;;;;;;4145948;28;20034;-68
2023/03/25 01:02:21;;;;;;;25.70;13.03;;;10.60;99.90;;;;;;4160371;28;20096;-64
2023/03/25 01:04:22;;;;;;;18.93;11.17;;;10.60;99.90;;;;;;4161486;28;20037;-69
2023/03/25 01:06:31;;;;;;;19.20;11.13;;;10.60;99.90;;;;;;4160327;28;20389;-67
2023/03/25 01:08:32;;;;;;;19.70;11.70;;;10.70;99.90;;;;;;4161886;28;20404;-64
2023/03/25 01:10:36;;;;;;;23.53;12.37;;;10.70;99.90;;;;;;4160742;28;20037;-63
2023/03/25 01:12:37;;;;;;;20.50;11.33;;;10.70;99.90;;;;;;4152329;28;20568;-67
2023/03/25 01:14:39;;;;;;;18.00;10.93;;;10.70;99.90;;;;;;4144069;28;20088;-67
2023/03/25 01:16:40;;;;;;;19.07;11.30;;;10.80;99.90;;;;;;4145854;28;20022;-67
2023/03/25 01:18:41;;;;;;;20.77;12.47;;;10.80;99.90;;;;;;4144957;28;20056;-69
2023/03/25 01:20:42;;;;;;;19.77;12.20;;;10.80;99.90;;;;;;4147340;28;20088;-68
2023/03/25 01:22:43;;;;;;;23.73;13.03;;;10.70;99.90;;;;;;4146232;28;20381;-69
2023/03/25 01:24:45;;;;;;;20.47;11.70;;;10.70;99.90;;;;;;4144145;28;20038;-66
2023/03/25 01:26:46;;;;;;;22.73;12.07;;;10.70;99.90;;;;;;4145285;28;20034;-64
2023/03/25 01:28:47;;;;;;;23.30;13.90;;;10.70;99.90;;;;;;4144139;28;20087;-66
2023/03/25 01:30:49;;;;;;;22.37;12.13;;;10.80;99.90;;;;;;4145327;28;20080;-67
2023/03/25 01:32:50;;;;;;;23.37;12.33;;;10.80;99.90;;;;;;4143985;28;20058;-64
2023/03/25 01:34:51;;;;;;;17.97;11.97;;;10.70;99.90;;;;;;4145065;28;20375;-64
2023/03/25 01:36:54;;;;;;;25.10;12.77;;;10.70;99.90;;;;;;4144212;28;20037;-66
2023/03/25 01:38:57;;;;;;;20.43;11.40;;;10.60;99.90;;;;;;4145139;28;20113;-67
2023/03/25 01:40:59;;;;;;;25.73;11.87;;;10.50;99.90;;;;;;4151292;28;20080;-67
2023/03/25 01:43:00;;;;;;;21.27;11.50;;;10.40;99.90;;;;;;4144672;28;20042;-68
2023/03/25 01:45:28;;;;;;;27.67;13.60;;;10.30;99.90;;;;;;4156091;28;20064;-64
2023/03/25 01:47:29;;;;;;;26.70;12.63;;;10.30;99.90;;;;;;4158546;28;20095;-67
2023/03/25 01:49:42;;;;;;;24.30;11.77;;;10.20;99.90;;;;;;4160295;28;20420;-69
2023/03/25 01:51:45;;;;;;;24.53;13.20;;;10.20;99.90;;;;;;4161369;28;20026;-65
2023/03/25 01:53:47;;;;;;;32.40;13.60;;;10.20;99.90;;;;;;4157331;28;20057;-65
2023/03/25 01:55:51;;;;;;;29.13;14.07;;;10.20;99.90;;;;;;4145938;28;20065;-67
2023/03/25 01:57:55;;;;;;;31.03;13.83;;;10.20;99.90;;;;;;4160516;28;20041;-67
2023/03/25 01:59:57;;;;;;;32.83;14.00;;;10.20;99.90;;;;;;4160804;28;20092;-65
2023/03/25 02:02:01;;;;;;;31.93;14.60;;;10.20;99.90;;;;;;4160773;28;20867;-67
2023/03/25 02:04:08;;;;;;;37.70;14.43;;;10.20;99.90;;;;;;4160498;28;20080;-69
2023/03/25 02:06:16;;;;;;;29.20;13.80;;;10.30;99.90;;;;;;4160553;28;20029;-66
2023/03/25 02:08:19;;;;;;;28.50;12.63;;;10.30;99.90;;;;;;4159174;28;20041;-68
2023/03/25 02:10:20;;;;;;;32.30;13.37;;;10.30;99.90;;;;;;4159547;28;20017;-68
2023/03/25 02:12:22;;;;;;;24.13;12.47;;;10.30;99.90;;;;;;4159462;28;20095;-66
2023/03/25 02:14:29;;;;;;;32.03;13.40;;;10.20;99.90;;;;;;4160083;28;20018;-67
2023/03/25 02:17:01;;;;;;;31.00;12.83;;;10.20;99.90;;;;;;4150992;28;20100;-65
2023/03/25 02:19:31;;;;;;;27.03;12.30;;;10.20;99.90;;;;;;4143293;28;20034;-66
2023/03/25 02:21:44;;;;;;;21.42;11.48;;;10.20;99.90;;;;;;4143080;28;20434;-65
2023/03/25 02:24:15;;;;;;;28.40;12.57;;;10.20;99.90;;;;;;4152104;28;20489;-68
2023/03/25 02:26:28;;;;;;;22.13;13.57;;;10.10;99.90;;;;;;4136201;28;20491;-63
2023/03/25 02:29:00;;;;;;;23.47;12.53;;;10.10;99.90;;;;;;4146051;28;20516;-63
2023/03/25 02:31:14;;;;;;;28.93;12.10;;;10.10;99.90;;;;;;4162375;28;20087;-63
2023/03/25 02:33:15;;;;;;;21.57;12.07;;;10.10;99.90;;;;;;4160620;28;20045;-63
2023/03/25 02:35:51;;;;;;;25.90;13.10;;;10.10;99.90;;;;;;4154575;28;20073;-63
2023/03/25 02:38:10;;;;;;;21.63;13.07;;;10.10;99.90;;;;;;4146084;28;20038;-67
2023/03/25 02:41:06;;;;;;;24.87;11.63;;;10.10;99.90;;;;;;4146147;28;20030;-66
2023/03/25 02:43:29;;;;;;;21.33;11.40;;;10.10;99.90;;;;;;4087853;28;20396;-67
2023/03/25 02:45:36;;;;;;;23.93;10.77;;;10.10;99.90;;;;;;4147777;28;20080;-67
2023/03/25 02:47:44;;;;;;;22.57;10.57;;;10.10;99.90;;;;;;4162221;28;20025;-63
2023/03/25 02:49:57;;;;;;;20.43;10.13;;;10.10;99.90;;;;;;4161568;28;20112;-63
2023/03/25 02:52:05;;;;;;;21.27;9.80;;;10.10;99.90;;;;;;4161665;28;20100;-67
2023/03/25 02:54:11;;;;;;;19.33;10.80;;;10.10;99.90;;;;;;4162051;28;20033;-63
2023/03/25 02:56:15;;;;;;;26.30;12.27;;;10.10;99.90;;;;;;4161969;28;20033;-67
2023/03/25 02:58:20;;;;;;;22.70;11.53;;;10.10;99.90;;;;;;4162258;28;20026;-65
2023/03/25 03:00:26;;;;;;;23.43;11.50;;;10.10;99.90;;;;;;4161531;28;20097;-69
2023/03/25 03:02:31;;;;;;;19.07;10.80;;;9.80;99.90;;;;;;4162038;28;20029;-68
2023/03/25 03:04:32;;;;;;;16.73;10.10;;;9.60;99.90;;;;;;4158296;28;20038;-67
2023/03/25 03:06:41;;;;;;;19.87;11.37;;;9.30;99.90;;;;;;4145169;28;20179;-69
2023/03/25 03:08:48;;;;;;;18.23;10.97;;;9.20;99.90;;;;;;4155506;28;20021;-68
2023/03/25 03:11:12;;;;;;;16.13;10.17;;;9.20;99.90;;;;;;4157850;28;20026;-65
2023/03/25 03:13:23;;;;;;;19.70;10.30;;;9.20;99.90;;;;;;4145132;28;20034;-63
2023/03/25 03:16:01;;;;;;;23.23;10.57;;;9.30;99.90;;;;;;4144368;28;20100;-68
2023/03/25 03:18:14;;;;;;;22.30;11.43;;;9.30;99.90;;;;;;4146261;28;20080;-65
2023/03/25 03:20:38;;;;;;;23.80;12.20;;;9.30;99.90;;;;;;4145235;28;20026;-64
2023/03/25 03:23:01;;;;;;;36.83;15.20;;;9.30;99.90;;;;;;4161711;28;20042;-65
2023/03/25 03:25:16;;;;;;;30.53;16.50;;;9.20;99.90;;;;;;4161645;28;20026;-67
2023/03/25 03:27:25;;;;;;;35.73;15.90;;;9.10;99.90;;;;;;4155973;28;20537;-65
2023/03/25 03:29:32;;;;;;;28.80;15.90;;;9.10;99.90;;;;;;4145587;28;20466;-64
2023/03/25 03:31:41;;;;;;;31.80;16.73;;;9.10;99.90;;;;;;4145057;28;20084;-68
2023/03/25 03:33:51;;;;;;;29.00;16.63;;;9.00;99.90;;;;;;4145054;28;20042;-67
2023/03/25 03:36:03;;;;;;;31.88;16.80;;;8.90;99.90;;;;;;4144650;28;20042;-64
2023/03/25 03:38:13;;;;;;;37.93;18.00;;;8.90;99.90;;;;;;4143994;28;20096;-64
2023/03/25 03:40:19;;;;;;;35.53;17.53;;;9.00;99.90;;;;;;4147052;28;20038;-69
2023/03/25 03:42:27;;;;;;;33.80;17.30;;;9.00;99.90;;;;;;4160679;28;20135;-67
2023/03/25 03:44:33;;;;;;;35.50;17.47;;;9.10;99.90;;;;;;4161331;28;20050;-66
2023/03/25 03:46:58;;;;;;;37.37;16.10;;;9.10;99.90;;;;;;4150572;28;20030;-64
2023/03/25 03:49:04;;;;;;;29.27;15.67;;;9.10;99.90;;;;;;4144807;28;20112;-66
2023/03/25 03:51:17;;;;;;;25.17;15.00;;;9.00;99.90;;;;;;4144773;28;20022;-64
2023/03/25 03:53:26;;;;;;;33.50;16.40;;;9.00;99.90;;;;;;4144459;28;20561;-64
2023/03/25 03:55:36;;;;;;;30.37;15.53;;;8.90;99.90;;;;;;4144252;28;20111;-68
2023/03/25 03:57:59;;;;;;;26.45;15.57;;;8.90;99.90;;;;;;4155652;28;20041;-65
2023/03/25 04:00:21;;;;;;;23.73;13.80;;;8.80;99.90;;;;;;4160967;28;20034;-65
2023/03/25 04:02:25;;;;;;;29.77;15.63;;;8.80;99.90;;;;;;4152741;28;20052;-69
2023/03/25 04:04:27;;;;;;;27.00;15.87;;;8.80;99.90;;;;;;4144601;28;20068;-64
2023/03/25 04:06:55;;;;;;;30.40;15.97;;;8.80;99.90;;;;;;4143806;28;20108;-69
2023/03/25 04:09:07;;;;;;;30.77;15.00;;;8.80;99.90;;;;;;4144125;28;20391;-64
2023/03/25 04:11:21;;;;;;;30.30;15.83;;;8.80;99.90;;;;;;4144443;28;20072;-66
2023/03/25 04:13:24;;;;;;;31.17;16.70;;;8.80;99.90;;;;;;4144109;28;20112;-68
2023/03/25 04:15:25;;;;;;;27.43;16.13;;;8.70;99.90;;;;;;4144759;28;20030;-67
2023/03/25 04:17:31;;;;;;;31.07;16.17;;;8.70;99.90;;;;;;4146101;28;20045;-65
2023/03/25 04:19:33;;;;;;;27.67;16.37;;;8.80;99.90;;;;;;4144156;28;20096;-69
2023/03/25 04:21:34;;;;;;;36.60;17.80;;;8.80;99.90;;;;;;4144303;28;20111;-63
2023/03/25 04:23:36;;;;;;;28.60;16.33;;;8.70;99.90;;;;;;4144325;28;20167;-68
2023/03/25 04:25:37;;;;;;;36.33;19.00;;;8.80;99.90;;;;;;4147339;28;20018;-68
2023/03/25 04:27:39;;;;;;;32.60;16.67;;;8.80;99.90;;;;;;4144315;28;20430;-68
2023/03/25 04:29:40;;;;;;;26.87;16.03;;;8.60;99.90;;;;;;4146363;28;20082;-67
2023/03/25 04:31:44;;;;;;;30.37;17.27;;;8.60;99.90;;;;;;4145842;28;20042;-66
2023/03/25 04:33:45;;;;;;;35.23;18.17;;;8.60;99.90;;;;;;4144236;28;20030;-64
2023/03/25 04:35:49;;;;;;;29.50;16.33;;;8.50;99.90;;;;;;4158466;28;20045;-64
2023/03/25 04:37:53;;;;;;;29.27;16.50;;;8.60;99.90;;;;;;4160183;28;20123;-64
2023/03/25 04:39:54;;;;;;;32.13;16.37;;;8.60;99.90;;;;;;4159753;28;20079;-63
2023/03/25 04:41:56;;;;;;;34.37;17.47;;;8.60;99.90;;;;;;4160043;28;20079;-64
2023/03/25 04:43:57;;;;;;;29.03;17.30;;;8.60;99.90;;;;;;4151178;28;20084;-65
2023/03/25 04:45:59;;;;;;;31.30;17.40;;;8.50;99.90;;;;;;4145129;28;20080;-64
2023/03/25 04:48:00;;;;;;;36.00;18.53;;;8.50;99.90;;;;;;4144052;28;20991;-64
2023/03/25 04:50:01;;;;;;;38.77;21.20;;;8.40;99.90;;;;;;4144107;28;20061;-66
2023/03/25 04:52:03;;;;;;;42.50;20.37;;;8.40;99.90;;;;;;4144419;28;20391;-63
2023/03/25 04:54:06;;;;;;;38.10;21.03;;;8.40;99.90;;;;;;4150328;28;20099;-64
2023/03/25 04:56:16;;;;;;;34.10;19.33;;;8.30;99.90;;;;;;4160276;28;20033;-63
2023/03/25 04:58:17;;;;;;;35.10;20.13;;;8.30;99.90;;;;;;4159602;28;20050;-67
2023/03/25 05:00:21;;;;;;;47.50;27.93;;;8.20;99.90;;;;;;4160132;28;20034;-64
2023/03/25 05:02:23;;;;;;;46.87;25.60;;;8.20;99.90;;;;;;4159778;28;20041;-64
2023/03/25 05:04:24;;;;;;;42.90;24.33;;;8.10;99.90;;;;;;4160066;28;20470;-64
2023/03/25 05:06:25;;;;;;;47.47;24.40;;;8.10;99.90;;;;;;4159978;28;20477;-64
2023/03/25 05:08:27;;;;;;;40.10;21.33;;;8.20;99.90;;;;;;4160099;28;20092;-64
2023/03/25 05:10:28;;;;;;;38.17;20.63;;;8.50;99.90;;;;;;4160183;28;20017;-64
2023/03/25 05:12:30;;;;;;;37.73;20.90;;;8.80;99.90;;;;;;4159835;28;20041;-65
2023/03/25 05:14:31;;;;;;;35.37;20.27;;;9.10;99.90;;;;;;4157628;28;20478;-63
2023/03/25 05:16:32;;;;;;;37.47;21.07;;;9.30;99.90;;;;;;4143792;28;20030;-69
2023/03/25 05:18:34;;;;;;;36.07;19.10;;;9.50;99.90;;;;;;4144503;28;20433;-64
2023/03/25 05:20:38;;;;;;;34.50;19.43;;;9.60;99.90;;;;;;4146171;28;20030;-66
2023/03/25 05:22:40;;;;;;;31.63;18.70;;;9.50;99.90;;;;;;4160037;28;21134;-69
2023/03/25 05:24:43;;;;;;;34.60;19.77;;;9.60;99.90;;;;;;4148227;28;20457;-64
2023/03/25 05:26:45;;;;;;;32.37;20.13;;;9.90;99.90;;;;;;4143301;28;20042;-65
2023/03/25 05:28:50;;;;;;;35.70;19.53;;;9.90;99.90;;;;;;4143524;28;20478;-67
2023/03/25 05:30:51;;;;;;;34.37;18.93;;;10.00;99.90;;;;;;4145500;28;20046;-65
2023/03/25 05:32:52;;;;;;;36.00;20.17;;;10.20;99.90;;;;;;4145376;28;20450;-65
2023/03/25 05:34:53;;;;;;;28.77;17.67;;;10.40;99.90;;;;;;4145552;28;20030;-66
2023/03/25 05:36:54;;;;;;;29.47;17.03;;;11.00;99.90;;;;;;4143438;28;20096;-69
2023/03/25 05:38:57;;;;;;;26.90;16.67;;;11.50;99.90;;;;;;4143367;28;20555;-68
2023/03/25 05:40:59;;;;;;;27.50;16.30;;;12.10;99.90;;;;;;4143029;28;20092;-65
2023/03/25 05:43:01;;;;;;;29.67;16.97;;;12.20;99.90;;;;;;4142825;28;20049;-68
2023/03/25 05:45:03;;;;;;;29.70;17.27;;;12.20;99.90;;;;;;4143389;28;20045;-70
2023/03/25 05:47:04;;;;;;;34.17;16.50;;;12.40;99.90;;;;;;4154258;28;20033;-72
2023/03/25 05:49:06;;;;;;;38.63;18.10;;;12.40;99.90;;;;;;4127249;28;20077;-66
2023/03/25 05:51:20;;;;;;;36.13;18.80;;;12.30;99.90;;;;;;4127462;28;20038;-65
2023/03/25 05:53:21;;;;;;;35.07;18.43;;;12.60;99.90;;;;;;4141603;28;20458;-66
2023/03/25 05:55:23;;;;;;;31.03;18.63;;;13.00;99.90;;;;;;4143295;28;20026;-71
2023/03/25 05:57:24;;;;;;;41.93;19.43;;;13.40;99.90;;;;;;4143253;28;20466;-68
2023/03/25 05:59:25;;;;;;;37.47;20.93;;;14.00;99.90;;;;;;4143533;28;20033;-69
2023/03/25 06:01:26;;;;;;;35.30;18.80;;;14.60;99.90;;;;;;4145484;28;20042;-66
2023/03/25 06:03:28;;;;;;;32.10;16.57;;;14.80;99.90;;;;;;4146722;28;20108;-68
2023/03/25 06:05:29;;;;;;;41.90;16.73;;;15.10;99.90;;;;;;4146280;28;20482;-68
2023/03/25 06:07:31;;;;;;;39.30;15.87;;;15.20;99.90;;;;;;4145822;28;20045;-66
2023/03/25 06:09:33;;;;;;;43.93;19.33;;;15.10;99.90;;;;;;4146225;28;20083;-66
2023/03/25 06:11:45;;;;;;;41.07;16.80;;;14.70;99.90;;;;;;4146376;28;20022;-63
2023/03/25 06:13:50;;;;;;;66.37;20.97;;;14.30;99.90;;;;;;4146175;28;20030;-64
2023/03/25 06:15:54;;;;;;;44.37;15.53;;;13.80;99.90;;;;;;4146723;28;20088;-65
2023/03/25 06:17:56;;;;;;;54.87;16.50;;;13.50;99.90;;;;;;4147766;28;20037;-64
2023/03/25 06:19:59;;;;;;;58.10;16.33;;;13.40;99.90;;;;;;4148903;28;20049;-65
2023/03/25 06:22:00;;;;;;;51.40;17.63;;;13.30;99.90;;;;;;4149581;28;20368;-65
2023/03/25 06:24:01;;;;;;;55.10;18.00;;;13.30;99.90;;;;;;4145894;28;20034;-66
2023/03/25 06:26:03;;;;;;;50.87;17.57;;;13.20;99.90;;;;;;4132029;28;20065;-66
2023/03/25 06:28:05;;;;;;;43.47;15.33;;;13.00;99.90;;;;;;4138020;28;20046;-65
2023/03/25 06:30:08;;;;;;;46.10;16.57;;;12.90;99.90;;;;;;4146215;28;20084;-69
2023/03/25 06:32:12;;;;;;;46.60;16.27;;;12.80;99.90;;;;;;4147264;28;20042;-66
2023/03/25 06:34:13;;;;;;;39.80;15.93;;;12.90;99.90;;;;;;4136476;28;20554;-64
2023/03/25 06:36:17;;;;;;;49.40;16.70;;;12.90;99.90;;;;;;4149653;28;20041;-65
2023/03/25 06:38:20;;;;;;;41.40;15.17;;;12.80;99.90;;;;;;4156603;28;20025;-67
2023/03/25 06:40:23;;;;;;;37.77;16.03;;;12.70;99.90;;;;;;4144880;28;20026;-63
2023/03/25 06:42:27;;;;;;;40.90;15.33;;;12.70;99.90;;;;;;4145321;28;20119;-63
2023/03/25 06:44:28;;;;;;;32.87;16.20;;;12.60;99.90;;;;;;4144803;28;20355;-64
2023/03/25 06:46:29;;;;;;;32.73;14.73;;;12.60;99.90;;;;;;4156058;28;20045;-63
2023/03/25 06:48:31;;;;;;;32.70;15.07;;;12.50;99.90;;;;;;4161904;28;20021;-64
2023/03/25 06:50:32;;;;;;;31.63;13.87;;;12.50;99.90;;;;;;4160869;28;20063;-64
2023/03/25 06:52:33;;;;;;;28.97;15.00;;;12.50;99.90;;;;;;4148647;28;20033;-62
2023/03/25 06:54:34;;;;;;;24.60;14.20;;;12.40;99.90;;;;;;4144608;28;20486;-64
2023/03/25 06:56:35;;;;;;;26.13;13.97;;;12.40;99.90;;;;;;4140168;28;20043;-62
2023/03/25 06:58:37;;;;;;;28.27;15.33;;;12.40;99.90;;;;;;4133002;28;20034;-65
2023/03/25 07:00:38;;;;;;;32.67;14.97;;;12.30;99.90;;;;;;4129909;28;20571;-64
2023/03/25 07:02:39;;;;;;;29.50;15.77;;;12.30;99.90;;;;;;4127912;28;20027;-64
2023/03/25 07:04:41;;;;;;;38.30;15.90;;;12.20;99.90;;;;;;4127892;28;20034;-65
2023/03/25 07:06:42;;;;;;;34.30;16.63;;;12.10;99.90;;;;;;4156936;28;20033;-65
2023/03/25 07:08:43;;;;;;;38.23;16.43;;;11.90;99.90;;;;;;4160165;28;20151;-65
2023/03/25 07:10:44;;;;;;;29.40;16.23;;;11.80;99.90;;;;;;4160053;28;20076;-65
2023/03/25 07:12:46;;;;;;;37.53;17.13;;;11.70;99.90;;;;;;4159383;28;20095;-65
2023/03/25 07:14:56;;;;;;;31.87;15.63;;;11.70;99.90;;;;;;4160748;28;20041;-67
2023/03/25 07:16:57;;;;;;;39.38;15.88;;;11.60;99.90;;;;;;4161487;28;21123;-63
2023/03/25 07:18:58;;;;;;;31.17;15.13;;;11.60;99.90;;;;;;4149988;28;20092;-64
2023/03/25 07:21:00;;;;;;;33.47;16.10;;;11.60;99.90;;;;;;4157828;28;20441;-63
2023/03/25 07:23:01;;;;;;;38.37;16.80;;;11.60;99.90;;;;;;4160305;28;20025;-69
2023/03/25 07:25:02;;;;;;;49.23;17.43;;;11.60;99.90;;;;;;4160044;28;20033;-66
2023/03/25 07:27:03;;;;;;;45.50;17.13;;;11.60;99.90;;;;;;4147312;28;20494;-72
2023/03/25 07:29:05;;;;;;;49.37;17.10;;;11.60;99.90;;;;;;4144789;28;20096;-69
2023/03/25 07:31:07;;;;;;;44.13;18.07;;;11.60;99.90;;;;;;4145067;28;20033;-67
2023/03/25 07:33:09;;;;;;;51.10;17.43;;;11.70;99.90;;;;;;4144476;28;20072;-70
2023/03/25 07:35:10;;;;;;;48.63;16.73;;;11.70;99.90;;;;;;4144784;28;20041;-66
2023/03/25 07:37:11;;;;;;;39.07;16.70;;;11.70;99.90;;;;;;4148811;28;20030;-65
2023/03/25 07:39:12;;;;;;;27.83;15.63;;;11.70;99.90;;;;;;4144837;28;20034;-68
2023/03/25 07:41:14;;;;;;;35.67;13.87;;;11.80;99.90;;;;;;4144830;28;20038;-67
2023/03/25 07:43:15;;;;;;;44.27;17.20;;;11.80;99.90;;;;;;4154846;28;20099;-66
2023/03/25 07:45:16;;;;;;;42.40;19.23;;;11.70;99.90;;;;;;4145443;28;20605;-65
2023/03/25 07:47:17;;;;;;;63.10;20.90;;;11.70;99.90;;;;;;4144171;28;20038;-64
2023/03/25 07:49:18;;;;;;;45.43;19.87;;;11.70;99.90;;;;;;4143308;28;20103;-65
2023/03/25 07:51:19;;;;;;;58.43;20.97;;;11.60;99.90;;;;;;4145658;28;20433;-65
2023/03/25 07:53:21;;;;;;;50.20;18.80;;;11.60;99.90;;;;;;4144655;28;20584;-63
2023/03/25 07:55:22;;;;;;;46.07;19.00;;;11.60;99.90;;;;;;4144457;28;20494;-65
2023/03/25 07:57:23;;;;;;;47.17;18.37;;;11.60;99.90;;;;;;4145379;28;20038;-68
2023/03/25 07:59:25;;;;;;;36.13;16.97;;;11.50;99.90;;;;;;4153222;28;20045;-67
2023/03/25 08:01:26;;;;;;;47.73;18.17;;;11.50;99.90;;;;;;4158537;28;20091;-66
2023/03/25 08:03:27;;;;;;;50.27;19.23;;;11.50;99.90;;;;;;4160442;28;20486;-68
2023/03/25 08:05:30;;;;;;;43.63;19.43;;;11.40;99.90;;;;;;4150718;28;20029;-68
2023/03/25 08:07:32;;;;;;;46.27;20.87;;;11.50;99.90;;;;;;4144084;28;20494;-66
2023/03/25 08:09:33;;;;;;;55.17;20.70;;;11.40;99.90;;;;;;4152266;28;20034;-67
2023/03/25 08:11:34;;;;;;;54.37;21.93;;;11.40;99.90;;;;;;4147736;28;20038;-68
2023/03/25 08:13:36;;;;;;;55.77;21.80;;;11.30;99.90;;;;;;4144097;28;20460;-69
2023/03/25 08:15:38;;;;;;;46.30;20.27;;;11.30;99.90;;;;;;4144589;28;20072;-65
2023/03/25 08:17:39;;;;;;;44.93;18.90;;;11.30;99.90;;;;;;4144649;28;20042;-67
2023/03/25 08:19:40;;;;;;;53.50;20.73;;;11.20;99.90;;;;;;4144695;28;20034;-70
2023/03/25 08:21:42;;;;;;;40.50;20.20;;;11.20;99.90;;;;;;4144240;28;20072;-65
2023/03/25 08:23:43;;;;;;;44.73;21.93;;;11.10;99.90;;;;;;4142620;28;20030;-68
2023/03/25 08:25:49;;;;;;;39.80;21.10;;;11.10;99.90;;;;;;4144343;28;20038;-68
2023/03/25 08:27:50;;;;;;;46.80;20.87;;;11.10;99.90;;;;;;4144478;28;20112;-67
2023/03/25 08:29:56;;;;;;;66.73;21.23;;;11.20;99.90;;;;;;4143981;28;20025;-70
2023/03/25 08:31:57;;;;;;;38.20;20.67;;;11.20;99.90;;;;;;4144036;28;20033;-67
2023/03/25 08:33:59;;;;;;;56.07;21.77;;;11.20;99.90;;;;;;4156638;28;20038;-67
2023/03/25 08:36:01;;;;;;;41.67;22.17;;;11.20;99.90;;;;;;4159950;28;20432;-68
2023/03/25 08:38:06;;;;;;;38.37;16.17;;;11.30;99.90;;;;;;4154524;28;20474;-68
2023/03/25 08:40:10;;;;;;;39.23;15.63;;;11.30;99.90;;;;;;4152352;28;20266;-66
2023/03/25 08:42:12;;;;;;;40.73;15.90;;;11.40;99.90;;;;;;4142208;28;20100;-66
2023/03/25 08:44:13;;;;;;;36.13;13.77;;;11.50;99.90;;;;;;4146559;28;20029;-69
2023/03/25 08:46:15;;;;;;;41.67;15.50;;;11.60;99.90;;;;;;4146760;28;20099;-66
2023/03/25 08:48:16;;;;;;;42.90;15.93;;;11.70;99.90;;;;;;4158691;28;20045;-65
2023/03/25 08:50:17;;;;;;;47.07;16.37;;;11.80;99.90;;;;;;4154276;28;20284;-69
2023/03/25 08:52:18;;;;;;;37.13;17.67;;;11.90;99.90;;;;;;4159789;28;20042;-69
2023/03/25 08:54:20;;;;;;;48.53;19.90;;;12.00;99.90;;;;;;4159957;28;20087;-67
2023/03/25 08:56:21;;;;;;;49.47;21.33;;;12.10;99.90;;;;;;4159927;28;20033;-67
2023/03/25 08:58:24;;;;;;;45.73;19.80;;;12.20;99.90;;;;;;4159735;28;20083;-66
2023/03/25 09:00:26;;;;;;;44.33;20.37;;;12.30;99.90;;;;;;4159684;28;20079;-65
2023/03/25 09:02:27;;;;;;;38.17;16.80;;;12.40;99.90;;;;;;4160068;28;20025;-66
2023/03/25 09:04:29;;;;;;;34.73;16.70;;;12.40;99.90;;;;;;4159989;28;20416;-63
2023/03/25 09:06:31;;;;;;;31.77;15.63;;;12.40;99.90;;;;;;4159796;28;20054;-62
2023/03/25 09:08:33;;;;;;;30.67;13.67;;;12.50;99.90;;;;;;4159564;28;20083;-65
2023/03/25 09:10:34;;;;;;;41.03;13.37;;;12.60;99.90;;;;;;4158038;28;20038;-67
2023/03/25 09:12:35;;;;;;;28.50;12.33;;;12.70;99.90;;;;;;4159844;28;20166;-65
2023/03/25 09:14:37;;;;;;;24.57;10.97;;;12.80;99.90;;;;;;4157972;28;20038;-66
2023/03/25 09:16:38;;;;;;;27.93;10.83;;;13.00;99.90;;;;;;4154748;28;20041;-67
2023/03/25 09:18:39;;;;;;;21.93;9.50;;;13.10;99.90;;;;;;4159679;28;20084;-66
2023/03/25 09:20:40;;;;;;;18.07;8.30;;;13.20;99.90;;;;;;4157945;28;20123;-64
2023/03/25 09:22:41;;;;;;;16.33;6.30;;;13.30;99.90;;;;;;4159869;28;20473;-67
2023/03/25 09:24:42;;;;;;;10.53;5.80;;;13.40;99.90;;;;;;4159807;28;20030;-69
2023/03/25 09:26:44;;;;;;;12.23;6.07;;;13.50;99.90;;;;;;4160064;28;20857;-67
2023/03/25 09:28:45;;;;;;;11.20;6.00;;;13.60;99.90;;;;;;4159640;28;20041;-67
2023/03/25 09:30:46;;;;;;;10.37;6.23;;;13.70;99.90;;;;;;4157833;28;20021;-67
2023/03/25 09:32:47;;;;;;;10.97;5.53;;;13.80;99.90;;;;;;4157438;28;20080;-68
2023/03/25 09:34:48;;;;;;;10.50;5.33;;;13.90;99.90;;;;;;4159352;28;20041;-68
2023/03/25 09:36:50;;;;;;;9.53;5.23;;;13.90;99.90;;;;;;4162463;28;20436;-67
2023/03/25 09:38:51;;;;;;;8.43;5.40;;;14.00;99.90;;;;;;4155996;28;20034;-67
2023/03/25 09:40:53;;;;;;;10.80;5.27;;;14.00;99.90;;;;;;4152276;28;20030;-68
2023/03/25 09:43:24;;;;;;;10.43;4.87;;;14.00;99.90;;;;;;4145735;28;20437;-66
2023/03/25 09:45:46;;;;;;;11.77;5.27;;;14.10;99.90;;;;;;4143887;28;20407;-69
2023/03/25 09:48:16;;;;;;;9.33;4.73;;;14.10;99.90;;;;;;4162653;28;20110;-66
2023/03/25 09:50:19;;;;;;;8.70;4.45;;;14.10;99.90;;;;;;4126290;28;20041;-69
2023/03/25 09:52:26;;;;;;;5.60;4.73;;;14.10;99.90;;;;;;4161934;28;20432;-65
2023/03/25 09:54:37;;;;;;;9.37;4.80;;;14.10;99.90;;;;;;4161884;28;20053;-66
2023/03/25 09:56:42;;;;;;;5.43;4.67;;;14.20;99.90;;;;;;4159615;28;20491;-66
2023/03/25 09:58:47;;;;;;;8.93;4.90;;;14.20;99.90;;;;;;4146067;28;20088;-68
2023/03/25 10:01:00;;;;;;;12.03;4.80;;;14.20;99.90;;;;;;4145730;28;20351;-69
2023/03/25 10:03:08;;;;;;;5.67;4.57;;;14.30;99.90;;;;;;4145961;28;20447;-68
2023/03/25 10:05:41;;;;;;;4.83;4.33;;;14.30;99.90;;;;;;4145982;28;20185;-71
2023/03/25 10:08:20;;;;;;;6.97;4.67;;;14.30;99.90;;;;;;4145875;28;20450;-64
2023/03/25 10:10:35;;;;;;;6.80;5.00;;;14.30;99.90;;;;;;4145623;28;20103;-69
2023/03/25 10:12:57;;;;;;;10.97;4.87;;;14.40;99.90;;;;;;4146091;28;20076;-68
2023/03/25 10:15:01;;;;;;;8.18;4.60;;;14.50;99.90;;;;;;4142958;28;20096;-68
2023/03/25 10:17:39;;;;;;;6.00;4.43;;;14.40;99.90;;;;;;4147794;28;20045;-64
2023/03/25 10:20:07;;;;;;;6.57;4.82;;;14.50;99.90;;;;;;4129730;28;20034;-68
2023/03/25 10:22:16;;;;;;;7.83;5.13;;;14.50;99.90;;;;;;4158993;28;20103;-67
2023/03/25 10:24:29;;;;;;;7.88;5.00;;;14.60;99.90;;;;;;4161840;28;20520;-68
2023/03/25 10:26:45;;;;;;;7.82;4.57;;;14.60;99.90;;;;;;4160190;28;20064;-70
2023/03/25 10:29:00;;;;;;;6.93;4.85;;;14.70;99.90;;;;;;4160414;28;20033;-69
2023/03/25 10:31:02;;;;;;;8.40;5.43;;;14.70;99.90;;;;;;4161267;28;20432;-65
2023/03/25 10:33:14;;;;;;;26.52;12.75;;;14.80;99.90;;;;;;4161536;28;20049;-65
2023/03/25 10:35:23;;;;;;;7.05;4.88;;;14.80;99.90;;;;;;4161668;28;20046;-66
2023/03/25 10:37:30;;;;;;;7.53;4.97;;;14.90;99.90;;;;;;4160317;28;20037;-66
2023/03/25 10:39:37;;;;;;;5.70;4.72;;;15.00;99.90;;;;;;4147333;28;20352;-67